createdAt,value
2024-04-30T00:03:49.291Z,100792.55
2024-04-30T00:07:52.023Z,100787.67
2024-04-30T00:11:54.709Z,100788.08
2024-04-30T00:15:57.628Z,100790.33
2024-04-30T00:20:00.639Z,100793.20
2024-04-30T00:24:06.415Z,100789.44
2024-04-30T00:28:10.288Z,100791.02
2024-04-30T00:32:13.123Z,100792.69
2024-04-30T00:36:16.060Z,100795.17
2024-04-30T00:40:19.089Z,100793.68
2024-04-30T00:44:21.849Z,100797.58
2024-04-30T00:48:27.183Z,100801.11
2024-04-30T00:52:32.141Z,100804.48
2024-04-30T00:56:36.011Z,100809.61
2024-04-30T01:00:40.798Z,100813.98
2024-04-30T01:04:44.291Z,100815.20
2024-04-30T01:08:47.079Z,100815.00
2024-04-30T01:12:50.849Z,100817.45
2024-04-30T01:16:53.491Z,100815.75
2024-04-30T01:20:56.244Z,100813.23
2024-04-30T01:24:59.111Z,100811.83
2024-04-30T01:29:02.692Z,100809.78
2024-04-30T01:33:05.639Z,100807.48
2024-04-30T01:37:08.333Z,100804.25
2024-04-30T01:41:11.122Z,100801.09
2024-04-30T01:45:13.865Z,100804.00
2024-04-30T01:49:16.619Z,100799.60
2024-04-30T01:53:20.564Z,100797.98
2024-04-30T01:57:23.487Z,100797.23
2024-04-30T02:01:26.264Z,100800.80
2024-04-30T02:05:35.195Z,100796.94
2024-04-30T02:09:38.366Z,100798.06
2024-04-30T02:13:46.599Z,100798.11
2024-04-30T02:17:49.597Z,100797.20
2024-04-30T02:21:57.766Z,100799.91
2024-04-30T02:26:04.256Z,100797.79
2024-04-30T02:30:53.093Z,100802.23
2024-04-30T02:34:57.232Z,100800.11
2024-04-30T02:38:59.970Z,100800.14
2024-04-30T02:43:02.946Z,100793.89
2024-04-30T02:47:06.795Z,100787.56
2024-04-30T02:51:09.494Z,100789.29
2024-04-30T02:55:12.263Z,100787.54
2024-04-30T02:59:16.237Z,100787.03
2024-04-30T03:03:18.975Z,100789.84
2024-04-30T03:07:22.261Z,100789.98
2024-04-30T03:11:25.116Z,100790.28
2024-04-30T03:15:30.337Z,100790.80
2024-04-30T03:19:35.518Z,100791.59
2024-04-30T03:23:39.760Z,100787.89
2024-04-30T03:27:42.698Z,100788.86
2024-04-30T03:31:45.722Z,100794.16
2024-04-30T03:36:00.640Z,100797.24
2024-04-30T03:40:03.889Z,100799.11
2024-04-30T03:44:07.313Z,100793.88
2024-04-30T03:48:10.652Z,100792.61
2024-04-30T03:52:13.523Z,100784.34
2024-04-30T03:56:16.230Z,100792.68
2024-04-30T04:00:20.193Z,100793.67
2024-04-30T04:04:23.139Z,100790.14
2024-04-30T04:08:25.905Z,100786.70
2024-04-30T04:12:46.919Z,100791.21
2024-04-30T04:16:49.567Z,100795.63
2024-04-30T04:20:52.318Z,100791.15
2024-04-30T04:30:48.696Z,100786.62
2024-04-30T04:34:59.981Z,100786.31
2024-04-30T04:39:02.715Z,100782.17
2024-04-30T04:43:08.381Z,100781.96
2024-04-30T04:47:12.995Z,100781.79
2024-04-30T04:51:15.655Z,100787.53
2024-04-30T04:55:45.918Z,100784.81
2024-04-30T04:59:48.684Z,100784.52
2024-04-30T05:04:20.982Z,100783.58
2024-04-30T05:08:23.706Z,100782.23
2024-04-30T05:12:28.664Z,100779.58
2024-04-30T05:16:31.715Z,100782.79
2024-04-30T05:20:37.144Z,100784.16
2024-04-30T05:24:39.838Z,100784.55
2024-04-30T05:29:39.090Z,100782.80
2024-04-30T05:33:41.839Z,100778.84
2024-04-30T05:39:02.819Z,100777.52
2024-04-30T05:44:20.788Z,100773.92
2024-04-30T05:48:23.402Z,100773.08
2024-04-30T05:52:26.289Z,100777.68
2024-04-30T05:56:28.929Z,100779.65
2024-04-30T06:00:31.569Z,100780.86
2024-04-30T06:04:39.648Z,100779.46
2024-04-30T06:08:42.367Z,100783.52
2024-04-30T06:13:38.248Z,100785.52
2024-04-30T06:17:40.942Z,100781.27
2024-04-30T06:21:45.269Z,100776.30
2024-04-30T06:26:13.354Z,100776.39
2024-04-30T06:30:16.123Z,100777.65
2024-04-30T06:34:18.862Z,100773.47
2024-04-30T06:38:21.576Z,100772.98
2024-04-30T06:42:24.548Z,100774.94
2024-04-30T06:46:33.906Z,100775.89
2024-04-30T06:51:04.755Z,100773.39
2024-04-30T06:55:07.435Z,100770.40
2024-04-30T06:59:10.239Z,100766.81
2024-04-30T07:03:12.920Z,100763.39
2024-04-30T07:07:21.141Z,100762.70
2024-04-30T07:11:24.608Z,100762.05
2024-04-30T07:15:29.458Z,100761.21
2024-04-30T07:19:33.431Z,100764.19
2024-04-30T07:23:38.456Z,100763.67
2024-04-30T07:27:44.395Z,100762.48
2024-04-30T07:31:51.927Z,100762.56
2024-04-30T07:35:57.643Z,100755.42
2024-04-30T07:40:02.029Z,100752.33
2024-04-30T07:44:06.278Z,100747.61
2024-04-30T07:48:11.057Z,100746.64
2024-04-30T07:52:18.565Z,100744.19
2024-04-30T07:56:22.445Z,100741.54
2024-04-30T08:00:26.994Z,100744.72
2024-04-30T08:04:32.233Z,100744.05
2024-04-30T08:08:38.149Z,100744.30
2024-04-30T08:12:42.082Z,100742.71
2024-04-30T08:16:46.322Z,100737.54
2024-04-30T08:20:50.524Z,100735.21
2024-04-30T08:24:54.477Z,100736.00
2024-04-30T08:29:49.115Z,100733.80
2024-04-30T08:33:53.814Z,100736.86
2024-04-30T08:38:01.165Z,100726.35
2024-04-30T08:42:06.570Z,100726.44
2024-04-30T08:46:12.308Z,100724.02
2024-04-30T08:50:21.309Z,100719.67
2024-04-30T08:54:34.548Z,100726.86
2024-04-30T08:58:42.481Z,100722.21
2024-04-30T09:02:53.461Z,100713.84
2024-04-30T09:06:58.962Z,100714.52
2024-04-30T09:11:03.392Z,100707.25
2024-04-30T09:15:16.544Z,100707.08
2024-04-30T09:19:28.172Z,100699.90
2024-04-30T09:23:33.473Z,100694.05
2024-04-30T09:27:36.952Z,100691.54
2024-04-30T09:31:40.927Z,100682.95
2024-04-30T09:35:50.353Z,100679.72
2024-04-30T09:39:54.687Z,100670.42
2024-04-30T09:44:00.530Z,100659.36
2024-04-30T09:48:10.000Z,100657.27
2024-04-30T09:52:16.909Z,100646.98
2024-04-30T09:56:22.543Z,100641.73
2024-04-30T10:00:28.772Z,100630.77
2024-04-30T10:04:34.398Z,100630.75
2024-04-30T10:08:44.441Z,100634.45
2024-04-30T10:12:48.222Z,100629.09
2024-04-30T10:17:05.772Z,100618.22
2024-04-30T10:21:13.504Z,100618.29
2024-04-30T10:25:27.052Z,100606.60
2024-04-30T10:29:31.518Z,100610.05
2024-04-30T10:33:36.145Z,100596.23
2024-04-30T10:37:40.418Z,100600.79
2024-04-30T10:41:50.484Z,100596.80
2024-04-30T10:45:54.284Z,100596.13
2024-04-30T10:50:16.187Z,100590.68
2024-04-30T10:54:25.208Z,100598.29
2024-04-30T10:58:32.675Z,100594.10
2024-04-30T11:02:40.193Z,100594.83
2024-04-30T11:06:50.518Z,100594.54
2024-04-30T11:10:54.664Z,100592.52
2024-04-30T11:14:58.744Z,100584.71
2024-04-30T11:19:03.039Z,100582.55
2024-04-30T11:23:07.339Z,100580.79
2024-04-30T11:27:13.038Z,100570.94
2024-04-30T11:31:17.045Z,100568.44
2024-04-30T11:35:22.274Z,100566.65
2024-04-30T11:39:26.217Z,100562.86
2024-04-30T11:43:30.693Z,100554.19
2024-04-30T11:47:34.955Z,100551.36
2024-04-30T11:51:39.016Z,100549.41
2024-04-30T11:55:44.147Z,100553.80
2024-04-30T11:59:47.809Z,100552.23
2024-04-30T12:03:52.526Z,100545.72
2024-04-30T12:07:59.026Z,100544.71
2024-04-30T12:12:05.595Z,100533.20
2024-04-30T12:16:09.513Z,100529.02
2024-04-30T12:20:13.648Z,100516.84
2024-04-30T12:24:17.787Z,100514.68
2024-04-30T12:28:23.799Z,100508.88
2024-04-30T12:32:27.985Z,100503.23
2024-04-30T12:36:36.252Z,100499.48
2024-04-30T12:40:40.931Z,100495.98
2024-04-30T12:44:45.349Z,100492.20
2024-04-30T12:48:49.448Z,100484.77
2024-04-30T12:52:54.538Z,100480.91
2024-04-30T12:57:00.912Z,100470.04
2024-04-30T13:01:07.964Z,100466.89
2024-04-30T13:05:13.221Z,100462.29
2024-04-30T13:14:00.523Z,100455.08
2024-04-30T13:18:04.508Z,100450.79
2024-04-30T13:22:11.419Z,100440.21
2024-04-30T13:26:15.255Z,100437.25
2024-04-30T13:30:21.945Z,100429.86
2024-04-30T13:34:25.715Z,100424.38
2024-04-30T13:38:33.140Z,100421.17
2024-04-30T13:42:36.342Z,100418.23
2024-04-30T13:46:53.841Z,100413.56
2024-04-30T13:50:56.861Z,100404.73
2024-04-30T13:55:01.018Z,100398.33
2024-04-30T13:59:57.936Z,100394.92
2024-04-30T14:04:00.751Z,100388.91
2024-04-30T14:08:03.844Z,100384.56
2024-04-30T14:12:12.153Z,100374.64
2024-04-30T14:16:16.061Z,100378.16
2024-04-30T14:20:19.587Z,100376.11
2024-04-30T14:24:24.680Z,100371.42
2024-04-30T14:28:27.617Z,100366.96
2024-04-30T14:32:30.798Z,100363.45
2024-04-30T14:36:37.472Z,100361.03
2024-04-30T14:40:49.616Z,100361.09
2024-04-30T14:44:54.593Z,100351.90
2024-04-30T14:49:13.966Z,100343.45
2024-04-30T14:53:17.916Z,100340.77
2024-04-30T14:57:24.196Z,100337.38
2024-04-30T15:01:27.428Z,100335.91
2024-04-30T15:05:32.093Z,100331.94
2024-04-30T15:09:37.046Z,100331.17
2024-04-30T15:13:39.719Z,100326.06
2024-04-30T15:17:42.527Z,100326.99
2024-04-30T15:21:45.291Z,100322.74
2024-04-30T15:25:50.392Z,100318.40
2024-04-30T15:29:53.138Z,100317.69
2024-04-30T15:33:56.137Z,100317.06
2024-04-30T15:38:05.092Z,100308.48
2024-04-30T15:42:07.834Z,100304.76
2024-04-30T15:46:10.630Z,100304.90
2024-04-30T15:50:40.409Z,100300.38
2024-04-30T15:54:43.344Z,100296.16
2024-04-30T15:59:43.406Z,100292.41
2024-04-30T16:03:46.255Z,100285.44
2024-04-30T16:08:04.630Z,100284.29
2024-04-30T16:12:07.544Z,100285.55
2024-04-30T16:16:16.523Z,100285.42
2024-04-30T16:20:23.584Z,100285.76
2024-04-30T16:24:26.419Z,100288.30
2024-04-30T16:37:56.766Z,100286.98
2024-04-30T16:42:00.112Z,100287.30
2024-04-30T16:46:05.734Z,100282.12
2024-04-30T16:50:08.706Z,100284.17
2024-04-30T16:54:39.317Z,100289.59
2024-04-30T16:58:42.201Z,100285.84
2024-04-30T17:02:44.938Z,100285.52
2024-04-30T17:07:12.176Z,100287.82
2024-04-30T17:11:14.971Z,100287.44
2024-04-30T17:15:18.222Z,100287.35
2024-04-30T17:19:21.082Z,100291.08
2024-04-30T17:23:23.986Z,100292.56
2024-04-30T17:27:30.149Z,100291.45
2024-04-30T17:31:34.104Z,100292.79
2024-04-30T17:35:37.558Z,100297.70
2024-04-30T17:39:40.311Z,100304.20
2024-04-30T17:43:43.022Z,100303.06
2024-04-30T17:48:03.176Z,100307.77
2024-04-30T17:56:29.252Z,100309.61
2024-04-30T18:00:32.424Z,100314.48
2024-04-30T18:04:35.494Z,100314.20
2024-04-30T18:08:38.880Z,100314.64
2024-04-30T18:12:42.144Z,100318.39
2024-04-30T18:16:45.112Z,100322.09
2024-04-30T18:20:48.152Z,100328.20
2024-04-30T18:24:51.218Z,100337.73
2024-04-30T18:28:57.491Z,100339.62
2024-04-30T18:33:00.614Z,100343.43
2024-04-30T18:37:07.001Z,100348.52
2024-04-30T18:41:20.943Z,100357.67
2024-04-30T18:45:31.127Z,100363.63
2024-04-30T18:49:34.329Z,100364.14
2024-04-30T18:53:37.899Z,100368.30
2024-04-30T18:57:40.969Z,100369.41
2024-04-30T19:01:49.178Z,100371.42
2024-04-30T19:05:52.238Z,100373.83
2024-04-30T19:09:55.279Z,100379.80
2024-04-30T19:13:58.371Z,100380.41
2024-04-30T19:18:01.746Z,100380.77
2024-04-30T19:22:05.214Z,100381.77
2024-04-30T19:26:14.845Z,100380.63
2024-04-30T19:30:19.165Z,100376.67
2024-04-30T19:34:22.696Z,100380.70
2024-04-30T19:38:25.850Z,100371.51
2024-04-30T19:42:30.217Z,100373.25
2024-04-30T19:46:33.748Z,100375.17
2024-04-30T19:50:36.797Z,100373.21
2024-04-30T19:54:39.901Z,100367.77
2024-04-30T19:58:44.652Z,100368.52
2024-04-30T20:02:51.485Z,100372.77
2024-04-30T20:06:54.694Z,100373.05
2024-04-30T20:10:57.982Z,100378.14
2024-04-30T20:15:01.081Z,100376.38
2024-04-30T20:19:04.486Z,100375.67
2024-04-30T20:23:07.715Z,100372.52
2024-04-30T20:27:11.796Z,100370.05
2024-04-30T20:31:15.545Z,100373.60
2024-04-30T20:35:18.605Z,100372.70
2024-04-30T20:39:21.734Z,100373.80
2024-04-30T20:43:25.140Z,100376.55
2024-04-30T20:47:28.459Z,100379.34
2024-04-30T20:51:31.583Z,100374.61
2024-04-30T20:55:34.788Z,100374.10
2024-04-30T20:59:38.110Z,100373.41
2024-04-30T21:03:41.367Z,100372.10
2024-04-30T21:07:45.068Z,100370.93
2024-04-30T21:11:48.829Z,100363.59
2024-04-30T21:15:55.092Z,100365.63
2024-04-30T21:19:58.630Z,100362.61
2024-04-30T21:24:01.851Z,100361.11
2024-04-30T21:28:05.329Z,100358.19
2024-04-30T21:32:09.485Z,100351.39
2024-04-30T21:36:13.183Z,100351.86
2024-04-30T21:40:17.156Z,100343.85
2024-04-30T21:44:20.180Z,100342.70
2024-04-30T21:48:23.424Z,100341.02
2024-04-30T21:52:26.636Z,100343.06
2024-04-30T21:56:30.067Z,100340.42
2024-04-30T22:00:33.126Z,100346.02
2024-04-30T22:04:36.459Z,100346.16
2024-04-30T22:08:40.568Z,100348.64
2024-04-30T22:12:44.186Z,100347.48
2024-04-30T22:16:47.279Z,100349.29
2024-04-30T22:20:50.886Z,100345.73
2024-04-30T22:24:54.705Z,100339.71
2024-04-30T22:28:58.077Z,100335.27
2024-04-30T22:33:01.786Z,100337.46
2024-04-30T22:37:05.168Z,100339.86
2024-04-30T22:41:08.306Z,100339.95
2024-04-30T22:45:11.484Z,100341.40
2024-04-30T22:49:14.613Z,100336.09
2024-04-30T22:53:17.815Z,100333.16
2024-04-30T22:57:20.926Z,100330.61
2024-04-30T23:01:24.114Z,100329.00
2024-04-30T23:05:27.260Z,100324.85
2024-04-30T23:09:31.498Z,100325.41
2024-04-30T23:13:34.729Z,100329.08
2024-04-30T23:17:37.840Z,100328.04
2024-04-30T23:21:41.579Z,100325.58
2024-04-30T23:25:44.840Z,100325.19
2024-04-30T23:29:48.732Z,100315.29
2024-04-30T23:33:52.221Z,100311.66
2024-04-30T23:37:55.479Z,100312.23
2024-04-30T23:41:58.547Z,100313.52
2024-04-30T23:46:02.595Z,100306.67
2024-04-30T23:50:06.126Z,100303.94
2024-04-30T23:54:10.416Z,100305.52
2024-04-30T23:58:13.454Z,100298.11
